createdAt,value
2019-02-10T00:02:21.521Z,148.63
2019-02-10T00:05:12.673Z,98.87
2019-02-10T00:08:02.166Z,90.00
2019-02-10T00:10:54.185Z,88.43
2019-02-10T00:13:42.900Z,107.23
2019-02-10T00:16:35.687Z,104.83
2019-02-10T00:19:25.036Z,128.87
2019-02-10T00:22:13.871Z,150.73
2019-02-10T00:25:06.181Z,153.87
2019-02-10T00:27:56.179Z,152.00
2019-02-10T00:30:45.922Z,158.93
2019-02-10T00:33:35.416Z,137.03
2019-02-10T00:36:32.665Z,129.37
2019-02-10T00:39:16.319Z,130.83
2019-02-10T00:42:07.632Z,142.53
2019-02-10T00:45:00.501Z,141.53
2019-02-10T00:47:50.000Z,149.73
2019-02-10T00:50:39.399Z,138.77
2019-02-10T00:53:32.054Z,141.43
2019-02-10T00:56:24.773Z,150.27
2019-02-10T00:59:15.458Z,137.87
2019-02-10T01:02:08.084Z,135.57
2019-02-10T01:04:57.460Z,128.97
2019-02-10T01:07:51.604Z,138.50
2019-02-10T01:10:41.601Z,146.03
2019-02-10T01:13:31.699Z,127.77
2019-02-10T01:16:22.728Z,113.30
2019-02-10T01:19:12.990Z,126.13
2019-02-10T01:22:02.727Z,122.60
2019-02-10T01:24:56.816Z,124.80
2019-02-10T01:27:56.417Z,130.70
2019-02-10T01:30:59.758Z,138.10
2019-02-10T01:33:49.555Z,121.87
2019-02-10T01:36:49.351Z,110.77
2019-02-10T01:39:33.268Z,109.73
2019-02-10T01:42:26.092Z,104.57
2019-02-10T01:45:18.821Z,111.33
2019-02-10T01:48:11.746Z,121.77
2019-02-10T01:51:03.909Z,119.07
2019-02-10T01:53:56.581Z,113.23
2019-02-10T01:56:49.960Z,122.57
2019-02-10T01:59:39.524Z,114.50
2019-02-10T02:02:30.088Z,119.80
2019-02-10T02:05:22.231Z,144.73
2019-02-10T02:08:12.039Z,152.20
2019-02-10T02:11:02.454Z,142.67
2019-02-10T02:13:54.404Z,137.53
2019-02-10T02:16:44.209Z,123.73
2019-02-10T02:19:36.848Z,106.77
2019-02-10T02:22:27.950Z,129.27
2019-02-10T02:25:17.464Z,125.57
2019-02-10T02:28:13.433Z,118.83
2019-02-10T02:31:03.193Z,123.37
2019-02-10T02:33:52.802Z,105.20
2019-02-10T02:36:45.401Z,114.60
2019-02-10T02:39:35.347Z,108.57
2019-02-10T02:42:27.554Z,111.07
2019-02-10T02:45:17.468Z,98.10
2019-02-10T02:48:11.205Z,92.07
2019-02-10T02:51:02.786Z,95.73
2019-02-10T02:53:54.496Z,106.20
2019-02-10T02:56:44.649Z,122.23
2019-02-10T02:59:37.157Z,98.60
2019-02-10T03:02:26.936Z,89.00
2019-02-10T03:05:23.747Z,82.40
2019-02-10T03:08:13.888Z,78.27
2019-02-10T03:11:03.437Z,88.07
2019-02-10T03:13:53.352Z,99.43
2019-02-10T03:16:43.177Z,87.00
2019-02-10T03:19:32.884Z,100.57
2019-02-10T03:22:22.457Z,102.13
2019-02-10T03:25:12.180Z,107.07
2019-02-10T03:28:03.096Z,85.20
2019-02-10T03:30:56.371Z,74.03
2019-02-10T03:33:51.763Z,71.93
2019-02-10T03:36:45.895Z,86.30
2019-02-10T03:39:38.585Z,75.13
2019-02-10T03:42:29.364Z,79.73
2019-02-10T03:45:18.717Z,75.43
2019-02-10T03:48:14.406Z,93.10
2019-02-10T03:51:10.266Z,97.90
2019-02-10T03:53:59.631Z,84.63
2019-02-10T03:56:49.554Z,102.23
2019-02-10T03:59:39.587Z,88.67
2019-02-10T04:02:36.885Z,90.63
2019-02-10T04:05:34.803Z,81.57
2019-02-10T04:08:27.958Z,95.00
2019-02-10T04:11:18.898Z,78.17
2019-02-10T04:14:11.878Z,98.90
2019-02-10T04:17:05.708Z,82.50
2019-02-10T04:20:00.419Z,80.47
2019-02-10T04:22:49.288Z,84.83
2019-02-10T04:25:39.905Z,74.80
2019-02-10T04:28:32.604Z,69.67
2019-02-10T04:31:24.583Z,72.77
2019-02-10T04:34:18.309Z,84.97
2019-02-10T04:37:11.174Z,97.57
2019-02-10T04:40:01.348Z,89.20
2019-02-10T04:42:51.361Z,99.13
2019-02-10T04:45:44.106Z,80.10
2019-02-10T04:48:40.309Z,81.03
2019-02-10T04:51:37.165Z,78.70
2019-02-10T04:54:32.155Z,100.57
2019-02-10T04:57:22.049Z,68.80
2019-02-10T05:00:18.689Z,56.10
2019-02-10T05:03:10.396Z,63.93
2019-02-10T05:06:00.086Z,70.90
2019-02-10T05:08:49.812Z,88.03
2019-02-10T05:11:39.681Z,140.43
2019-02-10T05:14:29.564Z,128.87
2019-02-10T05:17:24.783Z,104.83
2019-02-10T05:20:15.486Z,86.27
2019-02-10T05:23:07.684Z,96.57
2019-02-10T05:25:57.474Z,166.30
2019-02-10T05:28:48.856Z,119.23
2019-02-10T05:31:40.594Z,90.33
2019-02-10T05:34:35.167Z,124.60
2019-02-10T05:37:25.004Z,149.07
2019-02-10T05:40:17.797Z,180.93
2019-02-10T05:43:10.246Z,145.83
2019-02-10T05:46:00.050Z,196.03
2019-02-10T05:48:53.151Z,226.03
2019-02-10T05:51:47.183Z,212.67
2019-02-10T05:54:37.194Z,175.07
2019-02-10T05:57:29.099Z,163.07
2019-02-10T06:00:19.120Z,156.20
2019-02-10T06:03:09.070Z,152.03
2019-02-10T06:05:58.519Z,144.97
2019-02-10T06:08:50.486Z,127.33
2019-02-10T06:11:39.830Z,124.73
2019-02-10T06:14:30.089Z,211.73
2019-02-10T06:17:23.437Z,237.43
2019-02-10T06:20:13.314Z,304.47
2019-02-10T06:23:06.986Z,300.50
2019-02-10T06:26:01.222Z,409.07
2019-02-10T06:28:51.125Z,212.17
2019-02-10T06:31:45.418Z,332.77
2019-02-10T06:34:53.156Z,213.43
2019-02-10T06:37:58.488Z,173.23
2019-02-10T06:40:52.803Z,155.07
2019-02-10T06:43:44.575Z,154.33
2019-02-10T06:46:37.572Z,178.90
2019-02-10T06:49:38.502Z,154.83
2019-02-10T06:52:29.927Z,268.67
2019-02-10T06:55:26.360Z,288.07
2019-02-10T06:58:38.385Z,231.07
2019-02-10T07:01:55.699Z,198.37
2019-02-10T07:04:46.941Z,278.93
2019-02-10T07:07:37.533Z,156.17
2019-02-10T07:10:30.146Z,158.67
2019-02-10T07:13:35.181Z,476.50
2019-02-10T07:16:38.977Z,220.77
2019-02-10T07:20:20.312Z,246.50
2019-02-10T07:23:41.220Z,386.90
2019-02-10T07:26:59.898Z,249.47
2019-02-10T07:30:45.572Z,167.80
2019-02-10T07:34:22.793Z,92.53
2019-02-10T07:37:49.660Z,125.83
2019-02-10T07:41:15.183Z,170.53
2019-02-10T07:44:36.486Z,170.77
2019-02-10T07:48:00.313Z,145.30
2019-02-10T07:51:29.280Z,113.23
2019-02-10T07:55:01.841Z,118.47
2019-02-10T07:58:17.991Z,91.73
2019-02-10T08:01:57.650Z,89.10
2019-02-10T08:05:13.324Z,94.70
2019-02-10T08:08:27.845Z,112.37
2019-02-10T08:12:07.044Z,98.33
2019-02-10T08:15:52.904Z,101.50
2019-02-10T08:19:23.617Z,108.73
2019-02-10T08:22:49.649Z,101.57
2019-02-10T08:26:15.933Z,92.57
2019-02-10T08:29:49.332Z,81.47
2019-02-10T08:32:53.257Z,96.30
2019-02-10T08:36:05.423Z,91.17
2019-02-10T08:39:12.481Z,95.87
2019-02-10T08:42:47.969Z,86.87
2019-02-10T08:46:01.443Z,91.07
2019-02-10T08:49:31.118Z,88.60
2019-02-10T08:52:38.042Z,89.60
2019-02-10T08:55:27.627Z,84.63
2019-02-10T08:58:16.682Z,53.70
2019-02-10T09:01:05.931Z,73.30
2019-02-10T09:03:55.011Z,63.80
2019-02-10T09:06:44.269Z,63.00
2019-02-10T09:09:33.581Z,49.77
2019-02-10T09:12:22.908Z,43.87
2019-02-10T09:15:13.339Z,46.33
2019-02-10T09:18:02.955Z,35.90
2019-02-10T09:20:51.966Z,39.27
2019-02-10T09:23:41.295Z,28.37
2019-02-10T09:26:31.767Z,36.87
2019-02-10T09:29:21.028Z,29.70
2019-02-10T09:32:10.313Z,29.73
2019-02-10T09:35:00.096Z,40.93
2019-02-10T09:37:49.603Z,37.50
2019-02-10T09:40:38.804Z,46.07
2019-02-10T09:43:28.699Z,40.77
2019-02-10T09:46:17.840Z,41.23
2019-02-10T09:49:07.507Z,44.50
2019-02-10T09:51:56.374Z,44.83
2019-02-10T09:54:46.163Z,52.73
2019-02-10T09:57:35.604Z,50.87
2019-02-10T10:00:24.908Z,45.33
2019-02-10T10:03:14.203Z,44.93
2019-02-10T10:06:03.034Z,46.43
2019-02-10T10:08:52.658Z,44.00
2019-02-10T10:11:41.812Z,49.87
2019-02-10T10:14:31.225Z,66.37
2019-02-10T10:17:19.999Z,84.67
2019-02-10T10:20:14.706Z,93.90
2019-02-10T10:23:03.801Z,112.30
2019-02-10T10:25:53.093Z,114.07
2019-02-10T10:28:43.111Z,111.53
2019-02-10T10:31:32.506Z,83.93
2019-02-10T10:34:22.059Z,89.00
2019-02-10T10:37:11.392Z,67.73
2019-02-10T10:40:00.652Z,82.43
2019-02-10T10:42:50.099Z,69.53
2019-02-10T10:45:39.362Z,58.93
2019-02-10T10:48:28.671Z,60.00
2019-02-10T10:51:18.143Z,52.53
2019-02-10T10:54:07.488Z,60.30
2019-02-10T10:56:56.805Z,71.63
2019-02-10T10:59:46.058Z,70.70
2019-02-10T11:02:35.425Z,60.93
2019-02-10T11:05:24.725Z,64.33
2019-02-10T11:08:14.511Z,55.43
2019-02-10T11:11:03.882Z,73.03
2019-02-10T11:13:52.741Z,48.30
2019-02-10T11:16:42.057Z,58.03
2019-02-10T11:19:31.665Z,50.30
2019-02-10T11:22:21.115Z,48.57
2019-02-10T11:25:10.854Z,50.53
2019-02-10T11:28:00.254Z,51.80
2019-02-10T11:30:50.120Z,64.43
2019-02-10T11:33:39.357Z,57.83
2019-02-10T11:36:28.646Z,43.23
2019-02-10T11:39:18.001Z,45.13
2019-02-10T11:42:07.425Z,39.87
2019-02-10T11:44:56.921Z,39.40
2019-02-10T11:47:45.531Z,39.67
2019-02-10T11:50:34.977Z,43.97
2019-02-10T11:53:25.860Z,45.03
2019-02-10T11:56:15.127Z,47.80
2019-02-10T11:59:04.826Z,53.40
2019-02-10T12:01:54.059Z,39.87
2019-02-10T12:04:43.036Z,45.30
2019-02-10T12:07:32.014Z,34.97
2019-02-10T12:10:21.313Z,72.13
2019-02-10T12:13:10.653Z,37.43
2019-02-10T12:16:00.312Z,38.37
2019-02-10T12:18:50.082Z,28.17
2019-02-10T12:21:39.817Z,28.10
2019-02-10T12:24:29.523Z,29.40
2019-02-10T12:27:19.014Z,25.77
2019-02-10T12:30:10.974Z,33.30
2019-02-10T12:33:01.094Z,25.07
2019-02-10T12:35:57.995Z,19.87
2019-02-10T12:38:41.173Z,24.23
2019-02-10T12:41:29.901Z,27.57
2019-02-10T12:44:19.655Z,24.27
2019-02-10T12:47:08.408Z,31.40
2019-02-10T12:49:57.651Z,28.47
2019-02-10T12:52:46.930Z,39.43
2019-02-10T12:55:35.826Z,27.00
2019-02-10T12:58:25.132Z,29.57
2019-02-10T13:01:14.420Z,24.40
2019-02-10T13:04:03.982Z,24.30
2019-02-10T13:06:53.079Z,27.33
2019-02-10T13:09:42.391Z,18.47
2019-02-10T13:12:31.780Z,20.70
2019-02-10T13:15:21.015Z,24.47
2019-02-10T13:18:10.790Z,16.03
2019-02-10T13:21:00.147Z,33.10
2019-02-10T13:23:49.493Z,25.07
2019-02-10T13:26:38.788Z,26.60
2019-02-10T13:29:28.070Z,30.60
2019-02-10T13:32:17.392Z,25.10
2019-02-10T13:35:06.898Z,21.73
2019-02-10T13:37:55.837Z,23.23
2019-02-10T13:40:45.146Z,31.63
2019-02-10T13:43:34.440Z,19.07
2019-02-10T13:46:24.085Z,22.83
2019-02-10T13:49:13.475Z,13.27
2019-02-10T13:52:03.120Z,25.17
2019-02-10T13:54:52.498Z,17.27
2019-02-10T13:57:42.099Z,13.53
2019-02-10T14:00:30.894Z,25.87
2019-02-10T14:03:20.205Z,25.43
2019-02-10T14:06:09.689Z,30.50
2019-02-10T14:08:58.823Z,38.50
2019-02-10T14:11:49.398Z,35.80
2019-02-10T14:14:38.966Z,19.13
2019-02-10T14:17:28.524Z,12.07
2019-02-10T14:20:17.838Z,24.53
2019-02-10T14:23:07.114Z,27.87
2019-02-10T14:25:56.468Z,76.17
2019-02-10T14:28:45.723Z,48.43
2019-02-10T14:31:34.701Z,72.87
2019-02-10T14:34:24.186Z,57.50
2019-02-10T14:37:13.484Z,61.50
2019-02-10T14:40:02.754Z,57.07
2019-02-10T14:42:52.085Z,58.43
2019-02-10T14:45:41.376Z,56.30
2019-02-10T14:48:35.461Z,54.03
2019-02-10T14:51:25.124Z,58.47
2019-02-10T14:54:14.662Z,54.57
2019-02-10T14:57:03.943Z,68.37
2019-02-10T14:59:53.636Z,65.23
2019-02-10T15:02:42.931Z,131.10
2019-02-10T15:05:32.189Z,89.80
2019-02-10T15:08:21.464Z,76.47
2019-02-10T15:11:11.960Z,81.97
2019-02-10T15:14:01.379Z,54.87
2019-02-10T15:16:50.857Z,68.63
2019-02-10T15:19:40.134Z,65.13
2019-02-10T15:22:29.050Z,55.80
2019-02-10T15:25:18.379Z,68.77
2019-02-10T15:28:08.026Z,98.70
2019-02-10T15:30:57.964Z,79.70
2019-02-10T15:33:46.865Z,38.90
2019-02-10T15:36:36.437Z,35.53
2019-02-10T15:39:25.588Z,52.13
2019-02-10T15:41:58.038Z,70.00
2019-02-10T15:44:30.506Z,61.00
2019-02-10T15:47:03.001Z,54.47
2019-02-10T15:49:34.020Z,36.67
2019-02-10T15:52:05.277Z,44.63
2019-02-10T15:54:40.876Z,82.20
2019-02-10T15:57:13.343Z,56.97
2019-02-10T15:59:44.214Z,49.93
2019-02-10T16:02:15.118Z,73.13
2019-02-10T16:04:45.998Z,61.40
2019-02-10T16:07:18.633Z,40.90
2019-02-10T16:09:51.089Z,37.23
2019-02-10T16:12:22.921Z,36.53
2019-02-10T16:15:00.612Z,29.57
2019-02-10T16:17:33.199Z,49.47
2019-02-10T16:20:06.632Z,91.70
2019-02-10T16:22:42.459Z,91.87
2019-02-10T16:25:15.255Z,56.50
2019-02-10T16:27:49.239Z,63.20
2019-02-10T16:30:20.207Z,118.00
2019-02-10T16:32:51.182Z,118.43
2019-02-10T16:35:22.436Z,108.37
2019-02-10T16:37:53.324Z,142.57
2019-02-10T16:40:24.251Z,142.03
2019-02-10T16:42:55.106Z,136.27
2019-02-10T16:45:27.576Z,165.73
2019-02-10T16:48:01.016Z,175.07
2019-02-10T16:50:45.801Z,188.03
2019-02-10T16:53:23.194Z,189.60
2019-02-10T16:56:00.728Z,155.47
2019-02-10T16:58:32.153Z,167.00
2019-02-10T17:01:09.498Z,121.40
2019-02-10T17:03:44.028Z,148.60
2019-02-10T17:06:16.632Z,146.17
2019-02-10T17:08:47.601Z,47.07
2019-02-10T17:11:19.428Z,37.97
2019-02-10T17:13:55.055Z,29.47
2019-02-10T17:16:25.919Z,28.37
2019-02-10T17:19:02.421Z,88.73
2019-02-10T17:21:33.330Z,135.93
2019-02-10T17:24:04.209Z,238.13
2019-02-10T17:26:35.113Z,184.03
2019-02-10T17:29:06.111Z,186.73
2019-02-10T17:31:37.008Z,221.80
2019-02-10T17:34:08.011Z,197.27
2019-02-10T17:36:38.876Z,184.83
2019-02-10T17:39:16.490Z,255.37
2019-02-10T17:41:48.732Z,368.23
2019-02-10T17:44:21.195Z,316.87
2019-02-10T17:46:52.095Z,349.93
2019-02-10T17:49:22.967Z,358.30
2019-02-10T17:51:53.867Z,365.73
2019-02-10T17:54:24.882Z,347.53
2019-02-10T17:56:55.741Z,30.93
2019-02-10T17:59:28.212Z,226.57
2019-02-10T18:01:59.231Z,170.17
2019-02-10T18:04:37.385Z,249.07
2019-02-10T18:07:02.684Z,351.67
2019-02-10T18:09:33.590Z,203.80
2019-02-10T18:12:08.898Z,228.93
2019-02-10T18:14:58.850Z,242.03
2019-02-10T18:17:50.538Z,199.03
2019-02-10T18:20:51.189Z,221.60
2019-02-10T18:23:46.663Z,275.40
2019-02-10T18:26:43.787Z,233.17
2019-02-10T18:29:36.590Z,423.97
2019-02-10T18:32:30.296Z,399.97
2019-02-10T18:35:13.080Z,381.27
2019-02-10T18:38:19.863Z,422.27
2019-02-10T18:41:22.824Z,403.10
2019-02-10T18:44:38.176Z,333.07
2019-02-10T18:47:17.136Z,294.57
2019-02-10T18:50:05.498Z,226.97
2019-02-10T18:53:15.862Z,387.80
2019-02-10T18:56:11.229Z,400.87
2019-02-10T18:59:06.349Z,568.17
2019-02-10T19:01:59.450Z,250.60
2019-02-10T19:04:56.163Z,343.43
2019-02-10T19:07:53.711Z,210.67
2019-02-10T19:10:37.418Z,332.63
2019-02-10T19:13:29.001Z,472.60
2019-02-10T19:16:13.154Z,414.23
2019-02-10T19:18:57.619Z,376.93
2019-02-10T19:21:59.328Z,343.90
2019-02-10T19:25:00.264Z,357.83
2019-02-10T19:27:47.367Z,291.17
2019-02-10T19:30:46.156Z,300.63
2019-02-10T19:33:56.441Z,267.70
2019-02-10T19:36:44.796Z,218.40
2019-02-10T19:39:31.795Z,156.60
2019-02-10T19:42:34.939Z,115.30
2019-02-10T19:45:28.728Z,94.63
2019-02-10T19:48:34.192Z,141.83
2019-02-10T19:51:34.926Z,126.50
2019-02-10T19:54:16.804Z,249.23
2019-02-10T19:57:06.053Z,234.23
2019-02-10T19:59:55.744Z,216.57
2019-02-10T20:02:53.957Z,174.13
2019-02-10T20:06:01.171Z,187.83
2019-02-10T20:08:47.418Z,310.43
2019-02-10T20:11:48.644Z,300.00
2019-02-10T20:14:39.630Z,370.60
2019-02-10T20:17:25.359Z,282.77
2019-02-10T20:20:29.365Z,358.73
2019-02-10T20:23:26.226Z,332.47
2019-02-10T20:26:20.534Z,339.83
2019-02-10T20:29:10.352Z,321.67
2019-02-10T20:32:04.384Z,222.00
2019-02-10T20:34:49.149Z,186.77
2019-02-10T20:37:42.776Z,144.20
2019-02-10T20:40:35.190Z,174.03
2019-02-10T20:43:19.942Z,246.43
2019-02-10T20:46:16.027Z,167.93
2019-02-10T20:48:58.052Z,166.87
2019-02-10T20:51:47.925Z,180.63
2019-02-10T20:54:55.657Z,153.10
2019-02-10T20:57:57.602Z,449.70
2019-02-10T21:01:12.721Z,185.30
2019-02-10T21:04:15.645Z,165.23
2019-02-10T21:07:14.714Z,163.43
2019-02-10T21:10:25.554Z,162.40
2019-02-10T21:13:32.262Z,239.83
2019-02-10T21:16:38.600Z,204.97
2019-02-10T21:19:49.314Z,175.60
2019-02-10T21:22:57.018Z,155.97
2019-02-10T21:26:04.072Z,210.73
2019-02-10T21:29:09.970Z,239.57
2019-02-10T21:32:30.589Z,219.30
2019-02-10T21:35:28.908Z,190.63
2019-02-10T21:38:37.376Z,199.70
2019-02-10T21:41:51.722Z,216.47
2019-02-10T21:45:14.899Z,214.13
2019-02-10T21:48:08.273Z,192.57
2019-02-10T21:50:57.551Z,155.77
2019-02-10T21:53:46.982Z,134.13
2019-02-10T21:56:36.447Z,199.50
2019-02-10T21:59:25.798Z,121.43
2019-02-10T22:02:15.113Z,131.20
2019-02-10T22:05:04.908Z,124.33
2019-02-10T22:07:54.250Z,142.33
2019-02-10T22:10:43.594Z,148.60
2019-02-10T22:13:33.063Z,122.77
2019-02-10T22:16:22.831Z,112.67
2019-02-10T22:19:11.598Z,106.80
2019-02-10T22:22:00.923Z,136.07
2019-02-10T22:24:52.452Z,96.40
2019-02-10T22:27:41.914Z,89.57
2019-02-10T22:30:31.204Z,54.13
2019-02-10T22:33:20.629Z,50.40
2019-02-10T22:36:12.339Z,71.23
2019-02-10T22:39:01.674Z,55.17
2019-02-10T22:41:50.692Z,58.77
2019-02-10T22:44:39.796Z,65.17
2019-02-10T22:47:28.895Z,58.47
2019-02-10T22:50:18.521Z,55.10
2019-02-10T22:53:07.724Z,44.07
2019-02-10T22:55:56.622Z,54.20
2019-02-10T22:58:45.843Z,167.53
2019-02-10T23:01:35.483Z,65.80
2019-02-10T23:04:26.293Z,96.00
2019-02-10T23:07:15.180Z,48.93
2019-02-10T23:10:04.016Z,43.20
2019-02-10T23:12:54.012Z,46.87
2019-02-10T23:15:43.134Z,60.43
2019-02-10T23:18:33.070Z,48.87
2019-02-10T23:21:22.615Z,61.63
2019-02-10T23:24:14.498Z,50.20
2019-02-10T23:27:03.700Z,42.37
2019-02-10T23:29:52.567Z,42.30
2019-02-10T23:32:42.119Z,54.70
2019-02-10T23:35:31.773Z,53.03
2019-02-10T23:38:21.082Z,64.47
2019-02-10T23:41:10.356Z,62.50
2019-02-10T23:43:59.656Z,68.57
2019-02-10T23:46:48.506Z,68.93
2019-02-10T23:49:38.253Z,54.73
2019-02-10T23:52:27.995Z,43.87
2019-02-10T23:55:17.518Z,52.13
2019-02-10T23:58:06.874Z,49.80
